Time;durP1;ratioP1;P1;durP2;ratioP2;P2;SDS_P1;SDS_P2;PMS_P1;PMS_P2;Temp;Humidity;BMP_temperature;BMP_pressure;BME280_temperature;BME280_humidity;BME280_pressure;Samples;Min_cycle;Max_cycle;Signal;HPM_P1;HPM_P2
2022/02/23 00:02:12;;;;;;;;;;;7.30;99.90;;;;;;5082514;28;19908;-73
2022/02/23 00:04:38;;;;;;;;;;;7.30;99.90;;;;;;5048061;28;19912;-73
2022/02/23 00:07:04;;;;;;;;;;;7.30;99.90;;;;;;5082678;28;19931;-73
2022/02/23 00:09:29;;;;;;;;;;;7.30;99.90;;;;;;5083021;28;19916;-73
2022/02/23 00:11:55;;;;;;;;;;;7.30;99.90;;;;;;5085921;28;19920;-73
2022/02/23 00:14:21;;;;;;;;;;;7.30;99.90;;;;;;5086607;28;19975;-73
2022/02/23 00:16:46;;;;;;;;;;;7.40;99.90;;;;;;5086451;28;19908;-73
2022/02/23 00:19:12;;;;;;;;;;;7.40;99.90;;;;;;5086470;28;19915;-73
2022/02/23 00:21:38;;;;;;;;;;;7.50;99.90;;;;;;5085912;28;19930;-74
2022/02/23 00:24:04;;;;;;;;;;;7.50;99.90;;;;;;5068658;28;19940;-73
2022/02/23 00:26:31;;;;;;;;;;;7.60;99.90;;;;;;5051858;28;19908;-73
2022/02/23 00:28:57;;;;;;;;;;;7.60;99.90;;;;;;5052250;28;19912;-74
2022/02/23 00:31:23;;;;;;;;;;;7.60;99.90;;;;;;5085937;28;19909;-74
2022/02/23 00:33:48;;;;;;;;;;;7.60;99.90;;;;;;5086154;28;19909;-74
2022/02/23 00:36:14;;;;;;;;;;;7.60;99.90;;;;;;5086152;28;19939;-74
2022/02/23 00:38:40;;;;;;;;;;;7.60;99.90;;;;;;5077149;28;19913;-74
2022/02/23 00:41:05;;;;;;;;;;;7.60;99.90;;;;;;5067079;28;19916;-73
2022/02/23 00:43:31;;;;;;;;;;;7.60;99.90;;;;;;5083828;28;19921;-73
2022/02/23 00:45:57;;;;;;;;;;;7.70;99.90;;;;;;5080925;28;19915;-73
2022/02/23 00:48:22;;;;;;;;;;;7.60;99.90;;;;;;5068543;28;19908;-73
2022/02/23 00:50:48;;;;;;;;;;;7.60;99.90;;;;;;5085741;28;19915;-74
2022/02/23 00:53:14;;;;;;;;;;;7.60;99.90;;;;;;5076515;28;19976;-75
2022/02/23 00:55:40;;;;;;;;;;;7.50;99.90;;;;;;5068136;28;19916;-74
2022/02/23 00:58:05;;;;;;;;;;;7.50;99.90;;;;;;5085345;28;19915;-75
2022/02/23 01:00:31;;;;;;;;;;;7.50;99.90;;;;;;5085586;28;19909;-74
2022/02/23 01:02:57;;;;;;;;;;;7.50;99.90;;;;;;5067640;28;20233;-74
2022/02/23 01:05:22;;;;;;;;;;;7.50;99.90;;;;;;5067886;28;20389;-74
2022/02/23 01:07:48;;;;;;;;;;;7.40;99.90;;;;;;5085393;28;19908;-73
2022/02/23 01:10:14;;;;;;;;;;;7.40;99.90;;;;;;5084609;28;19963;-73
2022/02/23 01:12:40;;;;;;;;;;;7.40;99.90;;;;;;5067465;28;19908;-73
2022/02/23 01:15:06;;;;;;;;;;;7.40;99.90;;;;;;5067631;28;19908;-73
2022/02/23 01:17:31;;;;;;;;;;;7.40;99.90;;;;;;5051056;28;19908;-73
2022/02/23 01:19:58;;;;;;;;;;;7.30;99.70;;;;;;5061048;28;19916;-73
2022/02/23 01:22:24;;;;;;;;;;;7.30;99.70;;;;;;5064742;28;19915;-73
2022/02/23 01:24:50;;;;;;;;;;;7.30;99.60;;;;;;5085277;28;19912;-73
2022/02/23 01:27:15;;;;;;;;;;;7.30;98.80;;;;;;5085176;28;19923;-73
2022/02/23 01:29:41;;;;;;;;;;;7.20;98.80;;;;;;5085055;28;20246;-73
2022/02/23 01:32:07;;;;;;;;;;;7.20;98.40;;;;;;5067081;28;19909;-75
2022/02/23 01:34:33;;;;;;;;;;;7.20;98.30;;;;;;5086369;28;19912;-69
2022/02/23 01:36:59;;;;;;;;;;;7.20;98.50;;;;;;5068438;28;20142;-69
2022/02/23 01:39:25;;;;;;;;;;;7.10;98.30;;;;;;5086430;28;19962;-69
2022/02/23 01:41:51;;;;;;;;;;;7.10;98.10;;;;;;5080468;28;20186;-69
2022/02/23 01:44:16;;;;;;;;;;;7.00;98.20;;;;;;5085729;28;19913;-69
2022/02/23 01:46:42;;;;;;;;;;;7.00;98.20;;;;;;5085702;28;20142;-68
2022/02/23 01:49:08;;;;;;;;;;;7.00;98.10;;;;;;5084645;28;19917;-70
2022/02/23 01:51:33;;;;;;;;;;;6.90;98.20;;;;;;5085107;28;19909;-70
2022/02/23 01:53:59;;;;;;;;;;;6.90;98.20;;;;;;5084849;28;19946;-70
2022/02/23 01:56:25;;;;;;;;;;;6.80;98.40;;;;;;5065986;28;20196;-70
2022/02/23 01:58:51;;;;;;;;;;;6.80;98.60;;;;;;5084856;28;19915;-70
2022/02/23 02:01:17;;;;;;;;;;;6.80;98.50;;;;;;5083978;28;19908;-70
2022/02/23 02:03:42;;;;;;;;;;;6.80;98.60;;;;;;5066529;28;20246;-70
2022/02/23 02:06:09;;;;;;;;;;;6.80;98.40;;;;;;5084711;28;19912;-69
2022/02/23 02:08:34;;;;;;;;;;;6.80;98.30;;;;;;5084678;28;19908;-69
2022/02/23 02:11:00;;;;;;;;;;;6.80;98.50;;;;;;5084151;28;19944;-69
2022/02/23 02:13:26;;;;;;;;;;;6.70;98.50;;;;;;5084613;28;20208;-69
2022/02/23 02:15:51;;;;;;;;;;;6.80;98.30;;;;;;5084467;28;19950;-69
2022/02/23 02:18:17;;;;;;;;;;;6.80;97.90;;;;;;5084151;28;19954;-69
2022/02/23 02:20:43;;;;;;;;;;;6.70;98.20;;;;;;5083844;28;19909;-69
2022/02/23 02:23:08;;;;;;;;;;;6.70;98.00;;;;;;5085552;28;20279;-70
2022/02/23 02:25:34;;;;;;;;;;;6.70;98.10;;;;;;5070571;28;19931;-70
2022/02/23 02:28:00;;;;;;;;;;;6.60;97.90;;;;;;5062696;28;19916;-70
2022/02/23 02:30:26;;;;;;;;;;;6.60;98.00;;;;;;5064033;28;19909;-70
2022/02/23 02:32:51;;;;;;;;;;;6.60;98.00;;;;;;5075900;28;19908;-71
2022/02/23 02:35:17;;;;;;;;;;;6.60;98.00;;;;;;5083406;28;19971;-70
2022/02/23 02:37:43;;;;;;;;;;;6.60;97.90;;;;;;5083864;28;20254;-71
2022/02/23 02:40:09;;;;;;;;;;;6.60;97.70;;;;;;5083730;28;19917;-71
2022/02/23 02:42:35;;;;;;;;;;;6.50;97.60;;;;;;5048909;28;19923;-70
2022/02/23 02:45:02;;;;;;;;;;;6.50;97.40;;;;;;5082610;28;19908;-70
2022/02/23 02:47:28;;;;;;;;;;;6.50;97.30;;;;;;5065864;28;19914;-70
2022/02/23 02:49:53;;;;;;;;;;;6.50;97.20;;;;;;5083587;28;19939;-70
2022/02/23 02:52:19;;;;;;;;;;;6.50;97.10;;;;;;5083017;28;19980;-69
2022/02/23 02:54:45;;;;;;;;;;;6.40;97.20;;;;;;5083410;28;19923;-70
2022/02/23 02:57:10;;;;;;;;;;;6.40;97.20;;;;;;5083295;28;19908;-70
2022/02/23 02:59:36;;;;;;;;;;;6.30;97.20;;;;;;5083236;28;20174;-70
2022/02/23 03:02:02;;;;;;;;;;;6.30;97.40;;;;;;5083279;28;19939;-71
2022/02/23 03:04:28;;;;;;;;;;;6.20;97.40;;;;;;5065870;28;20198;-70
2022/02/23 03:06:53;;;;;;;;;;;6.20;97.10;;;;;;5082529;28;19908;-71
2022/02/23 03:09:19;;;;;;;;;;;6.10;97.00;;;;;;5083688;28;19916;-70
2022/02/23 03:11:45;;;;;;;;;;;6.10;97.20;;;;;;5083112;28;20203;-71
2022/02/23 03:14:10;;;;;;;;;;;6.00;97.50;;;;;;5083641;28;19975;-71
2022/02/23 03:16:36;;;;;;;;;;;5.90;97.60;;;;;;5083668;28;19943;-71
2022/02/23 03:19:02;;;;;;;;;;;5.90;97.70;;;;;;5083699;28;19917;-71
2022/02/23 03:21:27;;;;;;;;;;;5.80;97.70;;;;;;5083134;28;19939;-71
2022/02/23 03:23:53;;;;;;;;;;;5.80;97.80;;;;;;5083841;28;19924;-72
2022/02/23 03:26:19;;;;;;;;;;;5.70;97.60;;;;;;5065794;28;19909;-71
2022/02/23 03:28:44;;;;;;;;;;;5.70;97.70;;;;;;5083587;28;20010;-70
2022/02/23 03:31:10;;;;;;;;;;;5.70;97.60;;;;;;5083290;28;19908;-70
2022/02/23 03:33:42;;;;;;;;;;;5.70;97.60;;;;;;5083251;28;19915;-69
2022/02/23 03:36:10;;;;;;;;;;;5.60;97.70;;;;;;5082796;28;19908;-69
2022/02/23 03:38:36;;;;;;;;;;;5.60;97.80;;;;;;5065231;28;19939;-69
2022/02/23 03:41:01;;;;;;;;;;;5.50;97.90;;;;;;5064914;28;19950;-71
2022/02/23 03:43:27;;;;;;;;;;;5.50;98.00;;;;;;5064332;28;19916;-70
2022/02/23 03:45:53;;;;;;;;;;;5.40;98.10;;;;;;5085473;28;20140;-70
2022/02/23 03:48:18;;;;;;;;;;;5.40;98.20;;;;;;5087569;28;20108;-71
2022/02/23 03:50:44;;;;;;;;;;;5.30;98.20;;;;;;5087349;28;19946;-70
2022/02/23 03:53:10;;;;;;;;;;;5.30;98.20;;;;;;5087271;28;19912;-70
2022/02/23 03:55:35;;;;;;;;;;;5.30;98.30;;;;;;5086016;28;19978;-72
2022/02/23 03:58:01;;;;;;;;;;;5.30;98.30;;;;;;5068814;28;19916;-72
2022/02/23 04:00:27;;;;;;;;;;;5.30;98.10;;;;;;5086510;28;19940;-72
2022/02/23 04:02:53;;;;;;;;;;;5.20;97.90;;;;;;5085491;28;19909;-72
2022/02/23 04:05:18;;;;;;;;;;;5.20;98.10;;;;;;5069013;28;19908;-72
2022/02/23 04:07:45;;;;;;;;;;;5.10;98.20;;;;;;5067943;28;19978;-72
2022/02/23 04:10:11;;;;;;;;;;;5.10;98.20;;;;;;5068910;28;19993;-72
2022/02/23 04:12:37;;;;;;;;;;;5.10;98.10;;;;;;5113917;22;20223;-64
2022/02/23 04:15:02;;;;;;;;;;;5.10;97.80;;;;;;5087331;28;20015;-64
2022/02/23 04:17:28;;;;;;;;;;;5.10;97.80;;;;;;5104323;28;20153;-64
2022/02/23 04:19:54;;;;;;;;;;;5.10;97.80;;;;;;5105490;28;19938;-64
2022/02/23 04:22:19;;;;;;;;;;;5.00;97.90;;;;;;5102763;28;19908;-63
2022/02/23 04:24:45;;;;;;;;;;;5.00;98.10;;;;;;5096752;28;19922;-65
2022/02/23 04:27:11;;;;;;;;;;;5.00;98.20;;;;;;5104985;28;19915;-64
2022/02/23 04:29:36;;;;;;;;;;;4.90;98.40;;;;;;5105409;28;19992;-64
2022/02/23 04:32:02;;;;;;;;;;;5.00;98.50;;;;;;5102519;28;19908;-64
2022/02/23 04:34:28;;;;;;;;;;;5.00;98.50;;;;;;5096456;28;19916;-64
2022/02/23 04:36:54;;;;;;;;;;;4.90;98.60;;;;;;5105051;28;20202;-64
2022/02/23 04:39:19;;;;;;;;;;;4.90;98.70;;;;;;5103761;28;19908;-64
2022/02/23 04:41:45;;;;;;;;;;;4.90;98.70;;;;;;5101776;28;19908;-65
2022/02/23 04:44:11;;;;;;;;;;;4.90;98.60;;;;;;5084540;28;20191;-63
2022/02/23 04:46:36;;;;;;;;;;;4.90;98.50;;;;;;5084553;28;19915;-64
2022/02/23 04:49:02;;;;;;;;;;;4.90;98.50;;;;;;5084581;28;19980;-63
2022/02/23 04:51:29;;;;;;;;;;;4.90;98.80;;;;;;5094873;28;19959;-63
2022/02/23 04:53:57;;;;;;;;;;;4.80;98.70;;;;;;5104548;28;19915;-64
2022/02/23 04:56:22;;;;;;;;;;;4.70;99.00;;;;;;5103601;28;19908;-63
2022/02/23 04:58:48;;;;;;;;;;;4.70;98.70;;;;;;5104577;28;19987;-65
2022/02/23 05:01:14;;;;;;;;;;;4.70;98.70;;;;;;5104384;28;19982;-64
2022/02/23 05:03:40;;;;;;;;;;;4.70;98.70;;;;;;5104608;28;20160;-63
2022/02/23 05:06:06;;;;;;;;;;;4.70;98.80;;;;;;5104693;28;19997;-64
2022/02/23 05:08:31;;;;;;;;;;;4.70;98.70;;;;;;5104637;28;19908;-64
2022/02/23 05:10:57;;;;;;;;;;;4.60;98.60;;;;;;5104260;28;20083;-64
2022/02/23 05:13:25;;;;;;;;;;;4.60;98.50;;;;;;5087595;28;19919;-63
2022/02/23 05:15:56;;;;;;;;;;;4.60;98.40;;;;;;5084105;28;19909;-64
2022/02/23 05:18:28;;;;;;;;;;;4.60;98.50;;;;;;5084189;28;20114;-64
2022/02/23 05:20:54;;;;;;;;;;;4.60;98.50;;;;;;5083803;28;19909;-64
2022/02/23 05:23:20;;;;;;;;;;;4.60;98.50;;;;;;5085005;28;20212;-65
2022/02/23 05:25:46;;;;;;;;;;;4.50;98.60;;;;;;5095719;28;19946;-64
2022/02/23 05:28:11;;;;;;;;;;;4.50;98.50;;;;;;5104007;28;19988;-64
2022/02/23 05:30:37;;;;;;;;;;;4.50;98.70;;;;;;5103847;28;19950;-63
2022/02/23 05:33:04;;;;;;;;;;;4.50;98.60;;;;;;5103934;28;19908;-64
2022/02/23 05:35:30;;;;;;;;;;;4.50;98.60;;;;;;5104021;28;19908;-63
2022/02/23 05:37:56;;;;;;;;;;;4.50;98.70;;;;;;5096878;28;19912;-64
2022/02/23 05:40:21;;;;;;;;;;;4.40;98.70;;;;;;5085363;28;19966;-64
2022/02/23 05:42:47;;;;;;;;;;;4.40;98.80;;;;;;5094393;28;19982;-64
2022/02/23 05:45:13;;;;;;;;;;;4.40;98.80;;;;;;5093878;28;20084;-64
2022/02/23 05:47:39;;;;;;;;;;;4.40;98.80;;;;;;5102177;28;19980;-65
2022/02/23 05:50:05;;;;;;;;;;;4.40;98.80;;;;;;5103449;28;19976;-65
2022/02/23 05:52:30;;;;;;;;;;;4.40;98.80;;;;;;5098824;28;19908;-65
2022/02/23 05:54:56;;;;;;;;;;;4.40;98.70;;;;;;5097948;28;20257;-65
2022/02/23 05:57:22;;;;;;;;;;;4.40;98.70;;;;;;5097855;28;19912;-63
2022/02/23 05:59:48;;;;;;;;;;;4.40;98.80;;;;;;5082489;28;19978;-66
2022/02/23 06:02:14;;;;;;;;;;;4.30;98.80;;;;;;5088391;28;19919;-66
2022/02/23 06:04:39;;;;;;;;;;;4.30;98.80;;;;;;5103112;28;20111;-67
2022/02/23 06:07:06;;;;;;;;;;;4.30;98.70;;;;;;5103303;28;19908;-65
2022/02/23 06:09:32;;;;;;;;;;;4.30;98.70;;;;;;5102948;28;19908;-64
2022/02/23 06:11:58;;;;;;;;;;;4.40;98.70;;;;;;5094434;28;19921;-63
2022/02/23 06:14:24;;;;;;;;;;;4.30;98.60;;;;;;5082766;28;19948;-64
2022/02/23 06:16:50;;;;;;;;;;;4.30;98.70;;;;;;5082964;28;20019;-66
2022/02/23 06:19:15;;;;;;;;;;;4.30;98.80;;;;;;5091219;28;19913;-65
2022/02/23 06:21:41;;;;;;;;;;;4.30;98.80;;;;;;5089753;28;19908;-66
2022/02/23 06:24:07;;;;;;;;;;;4.30;98.80;;;;;;5082372;28;19912;-65
2022/02/23 06:26:32;;;;;;;;;;;4.30;98.90;;;;;;5082408;28;20111;-65
2022/02/23 06:28:58;;;;;;;;;;;4.30;98.80;;;;;;5082245;28;19984;-66
2022/02/23 06:31:24;;;;;;;;;;;4.20;98.90;;;;;;5082033;28;19946;-66
2022/02/23 06:33:50;;;;;;;;;;;4.30;99.00;;;;;;5082304;28;20152;-66
2022/02/23 06:36:16;;;;;;;;;;;4.20;98.90;;;;;;5082199;28;19915;-65
2022/02/23 06:38:41;;;;;;;;;;;4.30;99.30;;;;;;5082126;28;20152;-65
2022/02/23 06:41:10;;;;;;;;;;;4.30;99.00;;;;;;5081859;28;19927;-65
2022/02/23 06:43:35;;;;;;;;;;;4.30;98.80;;;;;;5060739;28;20198;-65
2022/02/23 06:46:01;;;;;;;;;;;4.30;98.80;;;;;;5087094;28;19912;-65
2022/02/23 06:48:28;;;;;;;;;;;4.30;98.80;;;;;;5082025;28;20182;-65
2022/02/23 06:50:54;;;;;;;;;;;4.40;98.60;;;;;;5081902;28;19977;-67
2022/02/23 06:53:20;;;;;;;;;;;4.40;98.70;;;;;;5081021;28;20003;-66
2022/02/23 06:55:46;;;;;;;;;;;4.40;98.50;;;;;;5081778;28;19916;-66
2022/02/23 06:58:12;;;;;;;;;;;4.50;98.60;;;;;;5082023;28;19996;-66
2022/02/23 07:00:38;;;;;;;;;;;4.50;98.50;;;;;;5081645;28;19908;-65
2022/02/23 07:03:03;;;;;;;;;;;4.50;98.50;;;;;;5080510;28;19990;-66
2022/02/23 07:05:29;;;;;;;;;;;4.60;98.40;;;;;;5081808;28;19908;-66
2022/02/23 07:07:55;;;;;;;;;;;4.60;98.40;;;;;;5081703;28;20207;-66
2022/02/23 07:10:25;;;;;;;;;;;4.60;98.10;;;;;;5081565;28;19935;-66
2022/02/23 07:12:51;;;;;;;;;;;4.70;98.40;;;;;;5080302;28;19999;-65
2022/02/23 07:15:17;;;;;;;;;;;4.70;98.00;;;;;;5081850;28;20015;-66
2022/02/23 07:17:43;;;;;;;;;;;4.80;97.90;;;;;;5081683;28;20196;-66
2022/02/23 07:20:09;;;;;;;;;;;4.80;98.00;;;;;;5081007;28;19923;-66
2022/02/23 07:22:36;;;;;;;;;;;4.90;97.80;;;;;;5081413;28;19908;-66
2022/02/23 07:25:03;;;;;;;;;;;4.90;97.90;;;;;;5080625;28;19979;-66
2022/02/23 07:27:29;;;;;;;;;;;5.00;97.60;;;;;;5081847;28;19913;-66
2022/02/23 07:29:54;;;;;;;;;;;4.90;97.80;;;;;;5081876;28;20080;-66
2022/02/23 07:32:22;;;;;;;;;;;5.00;97.70;;;;;;5081407;28;20195;-66
2022/02/23 07:34:50;;;;;;;;;;;5.00;97.70;;;;;;5081652;28;19996;-66
2022/02/23 07:37:16;;;;;;;;;;;5.00;97.50;;;;;;5081685;28;19930;-66
2022/02/23 07:39:42;;;;;;;;;;;5.10;97.60;;;;;;5081544;28;19940;-66
2022/02/23 07:42:08;;;;;;;;;;;5.20;97.30;;;;;;5079725;28;20273;-66
2022/02/23 07:44:34;;;;;;;;;;;5.20;97.30;;;;;;5081586;28;19913;-66
2022/02/23 07:46:59;;;;;;;;;;;5.20;97.10;;;;;;5081632;28;19917;-66
2022/02/23 07:49:26;;;;;;;;;;;5.20;97.20;;;;;;5081266;28;20227;-66
2022/02/23 07:51:52;;;;;;;;;;;5.30;97.20;;;;;;5081256;28;19963;-66
2022/02/23 07:54:17;;;;;;;;;;;5.30;97.00;;;;;;5081579;28;19927;-66
2022/02/23 07:56:43;;;;;;;;;;;5.30;96.90;;;;;;5081521;28;19908;-65
2022/02/23 07:59:09;;;;;;;;;;;5.40;97.00;;;;;;5081186;28;19908;-66
2022/02/23 08:01:37;;;;;;;;;;;5.40;97.00;;;;;;5081102;28;19909;-66
2022/02/23 08:04:05;;;;;;;;;;;5.40;96.90;;;;;;5081370;28;19920;-66
2022/02/23 08:06:31;;;;;;;;;;;5.40;97.00;;;;;;5081216;28;20045;-66
2022/02/23 08:08:57;;;;;;;;;;;5.50;97.00;;;;;;5081246;28;19982;-66
2022/02/23 08:11:24;;;;;;;;;;;5.50;97.00;;;;;;5080938;28;20142;-67
2022/02/23 08:13:56;;;;;;;;;;;5.60;97.00;;;;;;5080999;28;19908;-66
2022/02/23 08:21:54;;;;;;;;;;;5.70;96.90;;;;;;5068980;28;19947;-66
2022/02/23 08:24:21;;;;;;;;;;;5.80;96.80;;;;;;5060905;28;19913;-66
2022/02/23 08:26:47;;;;;;;;;;;5.90;96.70;;;;;;5060977;28;19908;-66
2022/02/23 08:29:13;;;;;;;;;;;5.90;96.60;;;;;;5060832;28;19916;-66
2022/02/23 08:31:38;;;;;;;;;;;6.00;96.70;;;;;;5062631;28;19947;-65
2022/02/23 08:34:04;;;;;;;;;;;6.10;96.50;;;;;;5064674;28;19921;-65
2022/02/23 08:36:30;;;;;;;;;;;6.10;96.30;;;;;;5063785;28;20376;-65
2022/02/23 08:38:55;;;;;;;;;;;6.10;96.10;;;;;;5064756;28;19955;-66
2022/02/23 08:41:24;;;;;;;;;;;6.10;96.20;;;;;;5063900;28;20007;-66
2022/02/23 08:43:50;;;;;;;;;;;6.30;96.20;;;;;;5080962;28;19920;-66
2022/02/23 08:46:16;;;;;;;;;;;6.30;96.30;;;;;;5083274;28;19909;-65
2022/02/23 08:48:42;;;;;;;;;;;6.40;95.70;;;;;;5084451;28;19928;-65
2022/02/23 08:51:07;;;;;;;;;;;6.40;95.60;;;;;;5084157;28;20433;-66
2022/02/23 08:53:33;;;;;;;;;;;6.50;95.30;;;;;;5084701;28;20118;-66
2022/02/23 08:55:59;;;;;;;;;;;6.60;95.50;;;;;;5084555;28;19984;-66
2022/02/23 08:58:25;;;;;;;;;;;6.60;95.40;;;;;;5084468;28;19915;-66
2022/02/23 09:00:51;;;;;;;;;;;6.70;95.50;;;;;;5084012;28;19915;-65
2022/02/23 09:03:21;;;;;;;;;;;6.80;95.20;;;;;;5084074;28;19932;-66
2022/02/23 09:05:47;;;;;;;;;;;6.90;94.20;;;;;;5084180;28;19909;-66
2022/02/23 09:08:13;;;;;;;;;;;6.90;93.50;;;;;;5084170;28;20195;-66
2022/02/23 09:10:39;;;;;;;;;;;7.00;94.00;;;;;;5083852;28;20222;-66
2022/02/23 09:13:05;;;;;;;;;;;7.10;93.70;;;;;;5083903;28;19913;-65
2022/02/23 09:15:31;;;;;;;;;;;7.30;93.40;;;;;;5082770;28;19969;-65
2022/02/23 09:17:58;;;;;;;;;;;7.30;92.90;;;;;;5083382;28;19908;-65
2022/02/23 09:20:23;;;;;;;;;;;7.70;93.20;;;;;;5082203;28;20207;-65
2022/02/23 09:22:49;;;;;;;;;;;8.00;91.40;;;;;;5082943;28;20004;-66
2022/02/23 09:25:15;;;;;;;;;;;8.00;91.70;;;;;;5075514;28;19912;-65
2022/02/23 09:27:41;;;;;;;;;;;8.00;90.20;;;;;;5078215;28;19948;-65
2022/02/23 09:30:12;;;;;;;;;;;7.80;90.70;;;;;;5075516;28;20078;-63
2022/02/23 09:32:39;;;;;;;;;;;7.70;90.30;;;;;;5080326;28;19908;-65
2022/02/23 09:35:05;;;;;;;;;;;7.90;90.60;;;;;;5068444;28;20196;-65
2022/02/23 09:37:31;;;;;;;;;;;7.80;90.50;;;;;;5075857;28;19928;-64
2022/02/23 09:39:57;;;;;;;;;;;7.90;90.60;;;;;;5077832;28;19908;-65
2022/02/23 09:42:26;;;;;;;;;;;7.90;89.50;;;;;;5063108;28;20056;-63
2022/02/23 09:44:52;;;;;;;;;;;7.80;87.10;;;;;;5065172;28;19931;-64
2022/02/23 09:47:18;;;;;;;;;;;7.90;88.40;;;;;;5075651;28;20204;-65
2022/02/23 09:49:46;;;;;;;;;;;7.90;88.20;;;;;;5077657;28;19983;-64
2022/02/23 09:52:12;;;;;;;;;;;7.90;88.30;;;;;;5082066;28;19970;-65
2022/02/23 09:54:38;;;;;;;;;;;7.70;87.80;;;;;;5081040;28;19908;-64
2022/02/23 09:57:04;;;;;;;;;;;7.60;86.80;;;;;;5066400;28;19913;-64
2022/02/23 09:59:29;;;;;;;;;;;7.50;86.20;;;;;;5073611;28;19909;-64
2022/02/23 10:01:58;;;;;;;;;;;7.50;86.50;;;;;;5071339;28;19920;-64
2022/02/23 10:04:24;;;;;;;;;;;7.50;87.00;;;;;;5076624;28;20216;-64
2022/02/23 10:06:50;;;;;;;;;;;7.60;85.20;;;;;;5074240;28;20004;-65
2022/02/23 10:09:16;;;;;;;;;;;7.50;85.60;;;;;;5082236;28;20183;-64
2022/02/23 10:11:45;;;;;;;;;;;7.60;86.40;;;;;;5082438;28;19959;-64
2022/02/23 10:14:11;;;;;;;;;;;7.60;84.50;;;;;;5133580;22;19928;-71
2022/02/23 10:16:39;;;;;;;;;;;7.80;85.30;;;;;;5092864;28;20217;-71
2022/02/23 10:19:13;;;;;;;;;;;7.90;85.30;;;;;;5120731;28;19908;-71
2022/02/23 10:21:46;;;;;;;;;;;8.00;85.40;;;;;;5124346;28;19908;-71
2022/02/23 10:24:25;;;;;;;;;;;8.20;85.20;;;;;;5128303;27;20215;-71
2022/02/23 10:27:08;;;;;;;;;;;8.10;83.20;;;;;;5103098;28;19930;-71
2022/02/23 10:29:55;;;;;;;;;;;8.30;83.00;;;;;;5112230;28;19908;-71
2022/02/23 10:32:22;;;;;;;;;;;8.50;81.20;;;;;;5083526;28;19909;-72
2022/02/23 10:34:50;;;;;;;;;;;8.70;81.40;;;;;;5087660;28;19966;-72
2022/02/23 10:37:23;;;;;;;;;;;8.90;79.60;;;;;;5091418;28;19908;-69
2022/02/23 10:39:51;;;;;;;;;;;9.20;76.50;;;;;;5104017;28;19953;-71
2022/02/23 10:42:19;;;;;;;;;;;9.30;74.00;;;;;;5085802;28;19943;-70
2022/02/23 10:44:48;;;;;;;;;;;9.50;73.20;;;;;;5102655;28;20211;-70
2022/02/23 10:47:32;;;;;;;;;;;9.60;73.20;;;;;;5102817;28;19916;-71
2022/02/23 10:50:10;;;;;;;;;;;9.70;73.40;;;;;;5102628;28;19908;-70
2022/02/23 10:52:57;;;;;;;;;;;9.80;72.20;;;;;;5101928;28;20086;-70
2022/02/23 10:55:28;;;;;;;;;;;10.00;72.40;;;;;;5101982;28;19912;-70
2022/02/23 10:57:58;;;;;;;;;;;10.10;72.00;;;;;;5103509;28;19923;-70
2022/02/23 11:00:35;;;;;;;;;;;10.40;69.50;;;;;;5102178;28;19908;-70
2022/02/23 11:03:01;;;;;;;;;;;11.00;64.70;;;;;;5085105;28;20204;-70
2022/02/23 11:05:27;;;;;;;;;;;11.40;60.20;;;;;;5102237;28;19908;-70
2022/02/23 11:07:54;;;;;;;;;;;11.70;60.20;;;;;;5103201;28;19908;-70
2022/02/23 11:10:20;;;;;;;;;;;12.00;60.80;;;;;;5085450;28;19908;-70
2022/02/23 11:12:47;;;;;;;;;;;12.10;59.00;;;;;;5103491;28;19946;-70
2022/02/23 11:15:19;;;;;;;;;;;12.60;59.30;;;;;;5102112;28;20145;-70
2022/02/23 11:17:46;;;;;;;;;;;13.10;58.80;;;;;;5102074;28;19975;-70
2022/02/23 11:20:16;;;;;;;;;;;14.40;54.00;;;;;;5103250;28;19915;-70
2022/02/23 11:22:42;;;;;;;;;;;15.80;47.20;;;;;;5101668;28;19992;-70
2022/02/23 11:25:08;;;;;;;;;;;17.70;43.30;;;;;;5101780;28;20149;-67
2022/02/23 11:27:34;;;;;;;;;;;19.20;40.40;;;;;;5103033;28;20144;-69
2022/02/23 11:30:07;;;;;;;;;;;20.80;37.60;;;;;;5085044;28;19936;-67
2022/02/23 11:32:38;;;;;;;;;;;21.50;33.70;;;;;;5095013;28;19965;-66
2022/02/23 11:35:05;;;;;;;;;;;22.00;32.10;;;;;;5082560;28;19932;-70
2022/02/23 11:37:30;;;;;;;;;;;21.90;32.30;;;;;;5082313;28;19916;-69
2022/02/23 11:39:56;;;;;;;;;;;23.70;30.60;;;;;;5081686;28;19992;-69
2022/02/23 11:42:22;;;;;;;;;;;24.80;28.80;;;;;;5064454;28;19915;-69
2022/02/23 11:44:50;;;;;;;;;;;24.70;28.10;;;;;;5082234;28;19948;-69
2022/02/23 11:47:18;;;;;;;;;;;24.10;28.00;;;;;;5067789;28;19915;-69
2022/02/23 11:49:57;;;;;;;;;;;24.20;28.70;;;;;;5101877;28;19908;-69
2022/02/23 11:52:29;;;;;;;;;;;24.10;28.60;;;;;;5102359;28;20084;-68
2022/02/23 11:55:03;;;;;;;;;;;23.60;28.90;;;;;;5101678;28;19946;-68
2022/02/23 11:57:43;;;;;;;;;;;23.60;29.00;;;;;;5101505;28;19923;-68
2022/02/23 12:00:13;;;;;;;;;;;24.10;28.90;;;;;;5101716;28;19980;-68
2022/02/23 12:02:39;;;;;;;;;;;24.90;28.30;;;;;;5102591;28;19915;-68
2022/02/23 12:05:09;;;;;;;;;;;24.10;28.00;;;;;;5101356;28;19919;-68
2022/02/23 12:07:46;;;;;;;;;;;23.30;28.70;;;;;;5106136;28;19952;-68
2022/02/23 12:10:12;;;;;;;;;;;23.00;29.70;;;;;;5106782;28;19908;-68
2022/02/23 12:12:40;;;;;;;;;;;23.90;28.70;;;;;;5105346;28;19919;-68
2022/02/23 12:15:19;;;;;;;;;;;24.80;27.90;;;;;;5105551;28;19919;-68
2022/02/23 12:17:54;;;;;;;;;;;24.30;27.50;;;;;;5106607;28;20203;-68
2022/02/23 12:20:42;;;;;;;;;;;23.80;28.20;;;;;;5106699;28;19908;-69
2022/02/23 12:23:29;;;;;;;;;;;25.10;27.30;;;;;;5106091;28;19908;-68
2022/02/23 12:26:07;;;;;;;;;;;25.50;27.10;;;;;;5106697;28;20111;-68
2022/02/23 12:28:36;;;;;;;;;;;26.10;27.20;;;;;;5106357;28;19908;-68
2022/02/23 12:31:07;;;;;;;;;;;28.00;25.40;;;;;;5105259;28;19908;-69
2022/02/23 12:33:37;;;;;;;;;;;28.30;25.00;;;;;;5104810;28;19908;-68
2022/02/23 12:36:05;;;;;;;;;;;29.10;24.90;;;;;;5106262;28;19908;-68
2022/02/23 12:38:35;;;;;;;;;;;28.70;24.20;;;;;;5106150;28;19919;-69
2022/02/23 12:41:09;;;;;;;;;;;29.50;23.70;;;;;;5088070;28;19982;-68
2022/02/23 12:43:35;;;;;;;;;;;28.40;23.30;;;;;;5106120;28;19912;-70
2022/02/23 12:46:00;;;;;;;;;;;29.80;23.90;;;;;;5104881;28;19914;-70
2022/02/23 12:48:30;;;;;;;;;;;31.20;23.70;;;;;;5103882;28;19908;-70
2022/02/23 12:51:02;;;;;;;;;;;29.60;23.00;;;;;;5104761;28;19908;-70
2022/02/23 12:53:41;;;;;;;;;;;29.30;23.60;;;;;;5104186;28;19975;-69
2022/02/23 12:56:17;;;;;;;;;;;28.60;23.40;;;;;;5106159;28;20096;-70
2022/02/23 12:58:43;;;;;;;;;;;28.60;23.50;;;;;;5105073;28;19971;-70
2022/02/23 13:01:23;;;;;;;;;;;28.60;23.60;;;;;;5105007;28;19908;-70
2022/02/23 13:03:53;;;;;;;;;;;29.40;23.30;;;;;;5104484;28;19968;-70
2022/02/23 13:06:29;;;;;;;;;;;30.60;22.50;;;;;;5088522;28;19969;-70
2022/02/23 13:08:55;;;;;;;;;;;30.30;22.70;;;;;;5106194;28;19908;-70
2022/02/23 13:11:29;;;;;;;;;;;30.70;22.40;;;;;;5105194;28;19908;-70
2022/02/23 13:13:55;;;;;;;;;;;29.60;22.80;;;;;;5105374;28;19964;-70
2022/02/23 13:16:27;;;;;;;;;;;29.70;23.30;;;;;;5104533;28;20200;-69
2022/02/23 13:18:59;;;;;;;;;;;29.70;22.00;;;;;;5104664;28;19908;-70
2022/02/23 13:21:40;;;;;;;;;;;29.70;22.80;;;;;;5085140;28;19908;-69
2022/02/23 13:24:07;;;;;;;;;;;29.60;22.20;;;;;;5085619;28;19943;-68
2022/02/23 13:26:34;;;;;;;;;;;29.50;22.30;;;;;;5084091;28;19975;-70
2022/02/23 13:29:00;;;;;;;;;;;29.90;22.70;;;;;;5085256;28;19909;-70
2022/02/23 13:31:34;;;;;;;;;;;29.00;22.80;;;;;;5083841;28;19980;-70
2022/02/23 13:34:30;;;;;;;;;;;30.30;22.60;;;;;;5067037;28;19909;-70
2022/02/23 13:37:04;;;;;;;;;;;29.40;23.00;;;;;;5084748;28;19991;-70
2022/02/23 13:39:51;;;;;;;;;;;29.00;22.70;;;;;;5083932;28;19914;-70
2022/02/23 13:42:38;;;;;;;;;;;29.60;23.40;;;;;;5085848;28;19909;-70
2022/02/23 13:45:20;;;;;;;;;;;31.30;22.70;;;;;;5100408;28;19958;-70
2022/02/23 13:47:50;;;;;;;;;;;31.90;22.60;;;;;;5083303;28;19950;-69
2022/02/23 13:50:20;;;;;;;;;;;30.30;23.10;;;;;;5099276;28;19976;-70
2022/02/23 13:52:48;;;;;;;;;;;30.10;22.70;;;;;;5104959;28;20287;-70
2022/02/23 13:55:20;;;;;;;;;;;29.20;23.40;;;;;;5103626;28;20307;-70
2022/02/23 13:57:50;;;;;;;;;;;30.00;23.20;;;;;;5103686;28;19915;-70
2022/02/23 14:00:29;;;;;;;;;;;28.90;23.00;;;;;;5104504;28;19939;-70
2022/02/23 14:03:08;;;;;;;;;;;29.30;23.00;;;;;;5102877;28;19922;-70
2022/02/23 14:05:34;;;;;;;;;;;29.50;22.70;;;;;;5104885;28;19908;-68
2022/02/23 14:08:01;;;;;;;;;;;30.10;22.70;;;;;;5103579;28;19973;-68
2022/02/23 14:10:37;;;;;;;;;;;29.40;22.90;;;;;;5103263;28;19908;-69
2022/02/23 14:13:05;;;;;;;;;;;30.10;22.70;;;;;;5102945;28;19918;-69
2022/02/23 14:15:32;;;;;;;;;;;28.90;23.00;;;;;;5103244;28;19912;-69
2022/02/23 14:18:16;;;;;;;;;;;27.90;23.00;;;;;;5102975;28;19908;-69
2022/02/23 14:20:42;;;;;;;;;;;27.00;22.90;;;;;;5102868;28;19979;-69
2022/02/23 14:23:14;;;;;;;;;;;27.60;23.00;;;;;;5102906;28;19908;-69
2022/02/23 14:25:40;;;;;;;;;;;26.80;23.30;;;;;;5102595;28;19908;-69
2022/02/23 14:28:05;;;;;;;;;;;26.20;23.80;;;;;;5104071;28;19916;-69
2022/02/23 14:30:35;;;;;;;;;;;25.90;24.30;;;;;;5102785;28;19908;-69
2022/02/23 14:33:02;;;;;;;;;;;23.90;25.50;;;;;;5086136;28;19908;-69
2022/02/23 14:35:27;;;;;;;;;;;23.00;26.30;;;;;;5101928;28;19908;-69